createdAt,value
2023-03-03T00:00:51.330Z,53.33
2023-03-03T00:03:23.052Z,51.57
2023-03-03T00:05:50.534Z,52.37
2023-03-03T00:08:18.854Z,53.13
2023-03-03T00:10:46.002Z,48.73
2023-03-03T00:13:17.645Z,49.87
2023-03-03T00:15:44.986Z,50.23
2023-03-03T00:18:23.914Z,50.43
2023-03-03T00:20:54.908Z,52.10
2023-03-03T00:23:29.809Z,50.00
2023-03-03T00:25:57.834Z,53.00
2023-03-03T00:28:25.048Z,54.23
2023-03-03T00:30:56.925Z,58.27
2023-03-03T00:33:34.649Z,55.67
2023-03-03T00:36:21.854Z,53.97
2023-03-03T00:38:49.929Z,54.40
2023-03-03T00:41:21.629Z,55.47
2023-03-03T00:43:48.761Z,56.80
2023-03-03T00:46:19.890Z,56.60
2023-03-03T00:48:47.517Z,52.93
2023-03-03T00:51:23.543Z,54.67
2023-03-03T00:53:50.894Z,53.57
2023-03-03T00:56:18.152Z,53.13
2023-03-03T00:58:47.600Z,56.27
2023-03-03T01:01:15.302Z,51.90
2023-03-03T01:03:42.925Z,56.00
2023-03-03T01:06:10.395Z,53.93
2023-03-03T01:08:37.562Z,55.27
2023-03-03T01:11:06.828Z,54.63
2023-03-03T01:13:37.560Z,52.17
2023-03-03T01:16:05.526Z,54.20
2023-03-03T01:18:33.180Z,58.67
2023-03-03T01:21:02.032Z,52.73
2023-03-03T01:23:29.695Z,55.80
2023-03-03T01:25:56.872Z,54.83
2023-03-03T01:28:24.052Z,51.57
2023-03-03T01:30:54.097Z,51.67
2023-03-03T01:33:23.370Z,49.47
2023-03-03T01:35:50.642Z,52.53
2023-03-03T01:38:17.909Z,55.63
2023-03-03T01:40:53.248Z,52.40
2023-03-03T01:43:20.550Z,51.83
2023-03-03T01:45:51.017Z,57.60
2023-03-03T01:48:35.315Z,51.43
2023-03-03T01:51:04.810Z,49.87
2023-03-03T01:53:44.259Z,49.17
2023-03-03T01:56:11.702Z,47.00
2023-03-03T01:58:45.505Z,54.87
2023-03-03T02:01:15.548Z,52.10
2023-03-03T02:03:44.278Z,52.13
2023-03-03T02:06:14.108Z,53.53
2023-03-03T02:09:00.350Z,55.33
2023-03-03T02:11:28.327Z,57.23
2023-03-03T02:13:55.646Z,50.50
2023-03-03T02:16:23.010Z,56.23
2023-03-03T02:18:50.216Z,54.07
2023-03-03T02:21:19.105Z,55.43
2023-03-03T02:24:06.598Z,51.17
2023-03-03T02:26:35.468Z,50.33
2023-03-03T02:29:02.853Z,53.30
2023-03-03T02:31:32.651Z,53.57
2023-03-03T02:33:59.958Z,58.47
2023-03-03T02:36:32.871Z,52.27
2023-03-03T02:39:04.064Z,51.63
2023-03-03T02:41:31.275Z,48.80
2023-03-03T02:44:01.082Z,52.67
2023-03-03T02:46:29.617Z,53.87
2023-03-03T02:48:56.782Z,52.77
2023-03-03T02:51:24.480Z,51.63
2023-03-03T02:53:51.758Z,54.53
2023-03-03T02:56:18.989Z,48.97
2023-03-03T02:58:46.285Z,56.33
2023-03-03T03:01:14.008Z,56.17
2023-03-03T03:03:41.332Z,54.77
2023-03-03T03:06:08.573Z,52.97
2023-03-03T03:08:36.090Z,54.17
2023-03-03T03:11:03.824Z,53.87
2023-03-03T03:13:31.997Z,57.27
2023-03-03T03:15:59.597Z,50.27
2023-03-03T03:18:27.123Z,54.07
2023-03-03T03:20:54.683Z,54.70
2023-03-03T03:23:24.774Z,53.30
2023-03-03T03:25:52.480Z,53.43
2023-03-03T03:28:19.835Z,55.87
2023-03-03T03:30:47.073Z,53.10
2023-03-03T03:33:17.442Z,59.13
2023-03-03T03:35:47.123Z,53.37
2023-03-03T03:38:14.894Z,59.07
2023-03-03T03:40:42.608Z,54.03
2023-03-03T03:43:10.012Z,54.00
2023-03-03T03:45:38.079Z,54.90
2023-03-03T03:48:05.400Z,53.23
2023-03-03T03:50:32.570Z,57.27
2023-03-03T03:52:59.716Z,54.67
2023-03-03T03:55:27.081Z,57.27
2023-03-03T03:57:54.186Z,55.73
2023-03-03T04:00:21.526Z,57.00
2023-03-03T04:02:49.015Z,54.83
2023-03-03T04:05:16.196Z,74.93
2023-03-03T04:07:43.341Z,67.17
2023-03-03T04:10:10.721Z,63.17
2023-03-03T04:12:38.721Z,65.17
2023-03-03T04:15:07.227Z,67.77
2023-03-03T04:17:34.416Z,75.73
2023-03-03T04:20:02.432Z,78.33
2023-03-03T04:22:33.782Z,62.20
2023-03-03T04:25:05.071Z,62.00
2023-03-03T04:27:36.111Z,61.87
2023-03-03T04:30:04.411Z,62.07
2023-03-03T04:32:33.968Z,62.67
2023-03-03T04:35:07.691Z,60.17
2023-03-03T04:37:36.453Z,62.40
2023-03-03T04:40:04.888Z,65.23
2023-03-03T04:42:32.046Z,62.60
2023-03-03T04:44:59.269Z,60.27
2023-03-03T04:47:26.893Z,60.30
2023-03-03T04:49:54.175Z,58.37
2023-03-03T04:52:21.565Z,64.10
2023-03-03T04:54:48.792Z,61.23
2023-03-03T04:57:16.438Z,62.53
2023-03-03T04:59:43.621Z,59.73
2023-03-03T05:02:11.018Z,66.30
2023-03-03T05:04:38.269Z,62.63
2023-03-03T05:07:05.504Z,59.17
2023-03-03T05:09:33.287Z,64.67
2023-03-03T05:12:00.490Z,60.43
2023-03-03T05:14:27.864Z,61.07
2023-03-03T05:16:55.281Z,59.20
2023-03-03T05:19:22.467Z,62.67
2023-03-03T05:21:49.713Z,65.80
2023-03-03T05:24:17.147Z,63.07
2023-03-03T05:26:44.300Z,62.87
2023-03-03T05:29:11.522Z,61.67
2023-03-03T05:31:38.833Z,61.60
2023-03-03T05:34:06.041Z,63.60
2023-03-03T05:36:33.198Z,61.87
2023-03-03T05:39:00.339Z,63.07
2023-03-03T05:41:27.503Z,63.40
2023-03-03T05:43:54.649Z,60.63
2023-03-03T05:46:21.903Z,58.83
2023-03-03T05:48:49.253Z,59.97
2023-03-03T05:51:16.414Z,61.40
2023-03-03T05:53:43.609Z,65.50
2023-03-03T05:56:10.879Z,61.53
2023-03-03T05:58:38.152Z,60.50
2023-03-03T06:01:05.431Z,62.37
2023-03-03T06:03:32.540Z,58.17
2023-03-03T06:05:59.814Z,57.50
2023-03-03T06:08:27.033Z,62.80
2023-03-03T06:10:54.172Z,59.37
2023-03-03T06:13:21.526Z,61.50
2023-03-03T06:15:48.675Z,62.97
2023-03-03T06:18:15.916Z,60.50
2023-03-03T06:20:43.056Z,57.50
2023-03-03T06:23:10.232Z,64.47
2023-03-03T06:25:37.397Z,59.37
2023-03-03T06:28:04.741Z,61.00
2023-03-03T06:30:31.960Z,57.37
2023-03-03T06:32:59.059Z,61.33
2023-03-03T06:35:26.241Z,64.93
2023-03-03T06:37:53.710Z,60.97
2023-03-03T06:40:21.057Z,59.93
2023-03-03T06:42:48.286Z,56.57
2023-03-03T06:45:18.046Z,60.07
2023-03-03T06:47:45.338Z,60.77
2023-03-03T06:50:13.329Z,59.83
2023-03-03T06:52:40.675Z,59.77
2023-03-03T06:55:12.158Z,55.40
2023-03-03T06:57:39.667Z,56.80
2023-03-03T07:00:16.020Z,62.37
2023-03-03T07:02:43.912Z,58.83
2023-03-03T07:05:16.417Z,58.13
2023-03-03T07:07:43.616Z,59.37
2023-03-03T07:10:27.029Z,65.63
2023-03-03T07:12:54.768Z,57.27
2023-03-03T07:15:30.863Z,59.77
2023-03-03T07:18:02.734Z,54.80
2023-03-03T07:20:42.004Z,53.63
2023-03-03T07:23:29.477Z,58.43
2023-03-03T07:25:56.695Z,60.13
2023-03-03T07:28:30.848Z,64.27
2023-03-03T07:30:58.609Z,59.50
2023-03-03T07:33:25.763Z,59.60
2023-03-03T07:35:54.688Z,59.53
2023-03-03T07:38:30.288Z,56.73
2023-03-03T07:41:02.042Z,59.83
2023-03-03T07:43:35.250Z,59.73
2023-03-03T07:46:11.874Z,58.77
2023-03-03T07:48:44.121Z,62.73
2023-03-03T07:51:17.287Z,58.47
2023-03-03T07:53:44.449Z,56.43
2023-03-03T07:56:22.877Z,59.73
2023-03-03T07:58:51.800Z,57.60
2023-03-03T08:01:40.788Z,57.53
2023-03-03T08:04:14.591Z,58.87
2023-03-03T08:06:49.491Z,56.50
2023-03-03T08:09:16.628Z,57.10
2023-03-03T08:11:58.898Z,55.50
2023-03-03T08:14:28.422Z,54.47
2023-03-03T08:16:56.689Z,55.93
2023-03-03T08:19:24.237Z,53.30
2023-03-03T08:21:52.734Z,57.13
2023-03-03T08:24:19.854Z,55.87
2023-03-03T08:26:47.089Z,53.17
2023-03-03T08:29:14.268Z,56.20
2023-03-03T08:31:42.266Z,52.70
2023-03-03T08:34:09.803Z,54.73
2023-03-03T08:36:36.953Z,56.97
2023-03-03T08:39:05.282Z,49.70
2023-03-03T08:41:32.560Z,56.10
2023-03-03T08:43:59.835Z,52.13
2023-03-03T08:46:28.831Z,50.93
2023-03-03T08:48:56.023Z,50.80
2023-03-03T08:51:23.828Z,49.70
2023-03-03T08:53:51.071Z,51.53
2023-03-03T08:56:18.227Z,49.67
2023-03-03T08:59:01.335Z,47.97
2023-03-03T09:01:29.748Z,51.83
2023-03-03T09:03:57.000Z,50.60
2023-03-03T09:06:24.191Z,48.17
2023-03-03T09:08:51.511Z,54.63
2023-03-03T09:11:27.721Z,48.90
2023-03-03T09:14:11.104Z,51.13
2023-03-03T09:16:40.125Z,50.03
2023-03-03T09:19:20.299Z,46.57
2023-03-03T09:21:47.493Z,50.70
2023-03-03T09:24:24.248Z,51.90
2023-03-03T09:26:53.846Z,47.57
2023-03-03T09:29:31.635Z,43.40
2023-03-03T09:32:01.112Z,47.77
2023-03-03T09:34:28.614Z,44.33
2023-03-03T09:36:56.455Z,48.30
2023-03-03T09:39:25.418Z,49.47
2023-03-03T09:41:52.571Z,46.60
2023-03-03T09:44:28.918Z,46.93
2023-03-03T09:47:05.015Z,46.93
2023-03-03T09:49:33.403Z,44.93
2023-03-03T09:52:03.386Z,44.60
2023-03-03T09:54:56.880Z,42.57
2023-03-03T09:57:27.058Z,41.13
2023-03-03T10:00:00.129Z,43.33
2023-03-03T10:02:30.457Z,46.40
2023-03-03T10:05:00.460Z,43.50
2023-03-03T10:07:27.656Z,45.27
2023-03-03T10:10:08.731Z,45.23
2023-03-03T10:12:45.147Z,45.77
2023-03-03T10:15:30.897Z,44.30
2023-03-03T10:18:07.420Z,44.90
2023-03-03T10:20:53.510Z,49.93
2023-03-03T10:23:24.151Z,45.23
2023-03-03T10:25:58.295Z,48.40
2023-03-03T10:28:46.720Z,44.50
2023-03-03T10:31:32.799Z,44.00
2023-03-03T10:34:20.290Z,47.07
2023-03-03T10:37:06.630Z,45.17
2023-03-03T10:39:51.743Z,44.67
2023-03-03T10:42:28.301Z,42.40
2023-03-03T10:45:13.794Z,41.37
2023-03-03T10:48:16.332Z,41.33
2023-03-03T10:50:52.185Z,41.33
2023-03-03T10:53:27.080Z,41.80
2023-03-03T10:56:02.304Z,39.67
2023-03-03T10:58:40.978Z,39.27
2023-03-03T11:01:08.327Z,40.43
2023-03-03T11:03:54.290Z,37.57
2023-03-03T11:06:40.632Z,33.93
2023-03-03T11:09:10.996Z,38.03
2023-03-03T11:11:41.532Z,37.53
2023-03-03T11:14:23.910Z,37.67
2023-03-03T11:16:54.149Z,37.40
2023-03-03T11:19:40.156Z,35.30
2023-03-03T11:22:17.038Z,38.77
2023-03-03T11:25:02.323Z,45.37
2023-03-03T11:27:32.303Z,36.63
2023-03-03T11:30:00.305Z,39.90
2023-03-03T11:32:39.521Z,38.33
2023-03-03T11:35:22.078Z,34.83
2023-03-03T11:37:59.751Z,43.67
2023-03-03T11:40:47.707Z,35.77
2023-03-03T11:43:35.376Z,37.93
2023-03-03T11:46:09.730Z,37.70
2023-03-03T11:48:39.982Z,37.83
2023-03-03T11:51:08.369Z,39.20
2023-03-03T11:53:48.024Z,37.43
2023-03-03T11:56:50.506Z,39.40
2023-03-03T11:59:30.228Z,41.13
2023-03-03T12:01:58.931Z,42.53
2023-03-03T12:04:30.873Z,38.53
2023-03-03T12:07:19.954Z,38.27
2023-03-03T12:09:53.576Z,39.67
2023-03-03T12:12:39.387Z,37.97
2023-03-03T12:15:23.576Z,41.20
2023-03-03T12:18:09.309Z,39.77
2023-03-03T12:20:55.306Z,36.53
2023-03-03T12:23:25.649Z,38.33
2023-03-03T12:25:59.352Z,37.80
2023-03-03T12:28:29.140Z,37.77
2023-03-03T12:31:10.200Z,39.67
2023-03-03T12:33:53.974Z,38.50
2023-03-03T12:36:21.169Z,38.00
2023-03-03T12:38:48.366Z,38.77
2023-03-03T12:41:24.879Z,38.53
2023-03-03T12:44:12.269Z,38.37
2023-03-03T12:46:58.376Z,37.60
2023-03-03T12:49:42.477Z,35.80
2023-03-03T12:52:10.228Z,34.37
2023-03-03T12:54:43.506Z,38.73
2023-03-03T12:57:13.558Z,42.30
2023-03-03T12:59:50.478Z,33.47
2023-03-03T13:02:36.552Z,37.80
2023-03-03T13:05:03.649Z,36.47
2023-03-03T13:07:46.168Z,34.60
2023-03-03T13:10:24.853Z,39.83
2023-03-03T13:12:56.427Z,33.80
2023-03-03T13:15:32.743Z,37.40
2023-03-03T13:18:07.338Z,37.50
2023-03-03T13:20:45.726Z,32.87
2023-03-03T13:23:27.476Z,34.23
2023-03-03T13:25:59.073Z,32.63
2023-03-03T13:28:35.347Z,34.87
2023-03-03T13:31:06.573Z,39.27
2023-03-03T13:33:36.934Z,31.27
2023-03-03T13:36:09.688Z,39.77
2023-03-03T13:38:47.035Z,37.47
2023-03-03T13:41:26.553Z,35.93
2023-03-03T13:44:15.043Z,35.77
2023-03-03T13:46:50.578Z,39.57
2023-03-03T13:49:24.042Z,36.57
2023-03-03T13:51:54.419Z,34.97
2023-03-03T13:54:37.155Z,32.70
2023-03-03T13:57:19.578Z,31.60
2023-03-03T14:00:02.303Z,40.00
2023-03-03T14:02:42.491Z,37.03
2023-03-03T14:05:32.964Z,34.70
2023-03-03T14:08:03.373Z,32.97
2023-03-03T14:10:30.454Z,32.80
2023-03-03T14:13:04.580Z,36.07
2023-03-03T14:15:43.948Z,35.20
2023-03-03T14:18:22.622Z,33.70
2023-03-03T14:21:13.361Z,32.43
2023-03-03T14:23:57.416Z,30.37
2023-03-03T14:26:25.030Z,29.93
2023-03-03T14:29:04.199Z,32.17
2023-03-03T14:31:39.081Z,35.90
2023-03-03T14:34:12.353Z,37.37
2023-03-03T14:36:40.600Z,39.10
2023-03-03T14:39:26.041Z,37.77
2023-03-03T14:41:53.666Z,38.37
2023-03-03T14:44:28.557Z,37.63
2023-03-03T14:47:12.441Z,38.03
2023-03-03T14:49:40.236Z,34.73
2023-03-03T14:52:19.140Z,36.27
2023-03-03T14:54:50.872Z,33.80
2023-03-03T14:57:18.185Z,38.13
2023-03-03T14:59:59.024Z,37.93
2023-03-03T15:02:35.707Z,37.77
2023-03-03T15:05:32.391Z,36.10
2023-03-03T15:08:05.431Z,35.67
2023-03-03T15:10:43.326Z,38.50
2023-03-03T15:13:22.403Z,36.77
2023-03-03T15:15:53.694Z,38.27
2023-03-03T15:18:21.245Z,35.57
2023-03-03T15:20:53.970Z,34.50
2023-03-03T15:23:33.326Z,36.07
2023-03-03T15:26:19.799Z,39.00
2023-03-03T15:28:56.143Z,37.77
2023-03-03T15:31:42.333Z,37.20
2023-03-03T15:34:19.152Z,44.03
2023-03-03T15:36:52.124Z,39.60
2023-03-03T15:39:22.324Z,40.23
2023-03-03T15:42:01.482Z,38.43
2023-03-03T15:44:37.439Z,40.83
2023-03-03T15:47:07.380Z,40.17
2023-03-03T15:49:38.454Z,38.57
2023-03-03T15:52:22.620Z,38.50
2023-03-03T15:54:49.807Z,37.57
2023-03-03T15:57:32.693Z,41.97
2023-03-03T16:00:04.484Z,38.67
2023-03-03T16:02:52.848Z,40.13
2023-03-03T16:05:32.249Z,38.43
2023-03-03T16:08:12.865Z,42.00
2023-03-03T16:10:56.138Z,42.70
2023-03-03T16:13:29.455Z,39.40
2023-03-03T16:16:05.549Z,46.13
2023-03-03T16:18:51.355Z,44.97
2023-03-03T16:21:42.202Z,53.63
2023-03-03T16:24:17.948Z,52.27
2023-03-03T16:26:54.575Z,41.97
2023-03-03T16:29:40.251Z,43.10
2023-03-03T16:32:12.481Z,42.37
2023-03-03T16:34:59.302Z,40.97
2023-03-03T16:37:26.407Z,44.03
2023-03-03T16:40:05.946Z,47.07
2023-03-03T16:42:34.136Z,44.20
2023-03-03T16:45:24.718Z,54.43
2023-03-03T16:48:03.404Z,51.07
2023-03-03T16:50:30.636Z,70.87
2023-03-03T16:53:03.524Z,69.47
2023-03-03T16:55:47.084Z,76.47
2023-03-03T16:58:14.186Z,55.47
2023-03-03T17:00:45.573Z,52.07
2023-03-03T17:03:18.675Z,66.27
2023-03-03T17:05:52.823Z,69.17
2023-03-03T17:08:43.014Z,54.10
2023-03-03T17:11:13.262Z,45.53
2023-03-03T17:14:07.191Z,45.93
2023-03-03T17:16:53.006Z,48.57
2023-03-03T17:19:32.804Z,46.63
2023-03-03T17:22:12.055Z,48.60
2023-03-03T17:24:49.182Z,47.00
2023-03-03T17:27:20.592Z,52.30
2023-03-03T17:29:48.401Z,60.67
2023-03-03T17:32:18.887Z,58.33
2023-03-03T17:34:55.847Z,46.83
2023-03-03T17:37:35.251Z,49.83
2023-03-03T17:40:14.349Z,89.57
2023-03-03T17:42:57.276Z,113.37
2023-03-03T17:45:25.864Z,101.43
2023-03-03T17:47:58.886Z,88.23
2023-03-03T17:50:44.625Z,87.57
2023-03-03T17:53:11.756Z,60.57
2023-03-03T17:55:44.737Z,69.20
2023-03-03T17:58:30.085Z,63.03
2023-03-03T18:01:09.333Z,53.97
2023-03-03T18:03:56.895Z,52.87
2023-03-03T18:06:52.167Z,49.50
2023-03-03T18:09:19.250Z,59.50
2023-03-03T18:11:58.604Z,50.80
2023-03-03T18:14:47.646Z,51.27
2023-03-03T18:17:20.938Z,52.00
2023-03-03T18:19:57.569Z,55.03
2023-03-03T18:22:34.283Z,55.20
2023-03-03T18:25:03.198Z,55.53
2023-03-03T18:27:35.020Z,55.13
2023-03-03T18:30:20.881Z,56.43
2023-03-03T18:33:01.195Z,50.33
2023-03-03T18:35:28.490Z,49.03
2023-03-03T18:37:56.024Z,56.50
2023-03-03T18:40:33.914Z,49.10
2023-03-03T18:43:21.199Z,99.13
2023-03-03T18:45:50.048Z,64.40
2023-03-03T18:48:17.592Z,95.27
2023-03-03T18:50:45.859Z,53.97
2023-03-03T18:53:26.376Z,54.23
2023-03-03T18:55:55.372Z,55.83
2023-03-03T18:58:42.865Z,54.97
2023-03-03T19:01:10.741Z,52.57
2023-03-03T19:03:56.846Z,57.13
2023-03-03T19:06:30.395Z,69.10
2023-03-03T19:08:58.317Z,65.73
2023-03-03T19:11:32.570Z,63.37
2023-03-03T19:14:18.178Z,62.07
2023-03-03T19:16:45.990Z,66.37
2023-03-03T19:19:34.311Z,59.57
2023-03-03T19:22:20.089Z,53.80
2023-03-03T19:25:03.318Z,52.83
2023-03-03T19:27:39.379Z,55.00
2023-03-03T19:30:25.516Z,59.07
2023-03-03T19:32:58.712Z,54.47
2023-03-03T19:35:25.849Z,55.63
2023-03-03T19:37:59.960Z,55.80
2023-03-03T19:40:27.166Z,58.27
2023-03-03T19:43:20.420Z,67.43
2023-03-03T19:45:59.060Z,69.43
2023-03-03T19:48:32.184Z,67.17
2023-03-03T19:50:59.385Z,66.60
2023-03-03T19:53:37.160Z,73.27
2023-03-03T19:56:04.295Z,67.23
2023-03-03T19:58:36.446Z,68.27
2023-03-03T20:01:18.630Z,65.37
2023-03-03T20:03:45.794Z,64.80
2023-03-03T20:06:33.278Z,66.90
2023-03-03T20:09:03.996Z,74.53
2023-03-03T20:11:37.999Z,67.03
2023-03-03T20:14:15.158Z,71.87
2023-03-03T20:16:43.555Z,75.70
2023-03-03T20:19:49.294Z,70.50
2023-03-03T20:22:23.906Z,62.03
2023-03-03T20:24:51.081Z,57.57
2023-03-03T20:27:27.910Z,55.73
2023-03-03T20:30:16.004Z,54.93
2023-03-03T20:32:56.611Z,53.10
2023-03-03T20:35:41.268Z,53.07
2023-03-03T20:38:26.480Z,51.73
2023-03-03T20:40:56.645Z,54.73
2023-03-03T20:43:26.678Z,53.57
2023-03-03T20:46:12.711Z,51.10
2023-03-03T20:48:58.626Z,53.73
2023-03-03T20:51:25.777Z,48.70
2023-03-03T20:54:05.277Z,54.10
2023-03-03T20:56:43.766Z,55.47
2023-03-03T20:59:14.175Z,54.57
2023-03-03T21:01:59.741Z,55.83
2023-03-03T21:04:28.158Z,52.70
2023-03-03T21:06:55.620Z,57.97
2023-03-03T21:09:25.529Z,59.27
2023-03-03T21:11:53.348Z,57.20
2023-03-03T21:14:20.519Z,52.27
2023-03-03T21:16:47.806Z,56.47
2023-03-03T21:19:24.557Z,71.20
2023-03-03T21:21:52.266Z,62.30
2023-03-03T21:24:22.676Z,60.93
2023-03-03T21:26:53.208Z,62.13
2023-03-03T21:29:22.050Z,59.30
2023-03-03T21:31:56.143Z,72.73
2023-03-03T21:34:28.295Z,62.70
2023-03-03T21:36:55.980Z,59.57
2023-03-03T21:39:27.819Z,61.73
2023-03-03T21:41:56.749Z,66.17
2023-03-03T21:44:46.877Z,64.93
2023-03-03T21:47:15.098Z,61.20
2023-03-03T21:49:43.260Z,56.07
2023-03-03T21:52:10.981Z,52.37
2023-03-03T21:54:38.113Z,51.53
2023-03-03T21:57:05.836Z,60.03
2023-03-03T21:59:33.147Z,59.73
2023-03-03T22:02:00.296Z,57.27
2023-03-03T22:04:27.536Z,56.83
2023-03-03T22:06:54.713Z,58.17
2023-03-03T22:09:21.897Z,52.80
2023-03-03T22:11:49.251Z,51.00
2023-03-03T22:14:16.603Z,65.37
2023-03-03T22:16:43.812Z,54.57
2023-03-03T22:19:11.096Z,54.70
2023-03-03T22:21:39.425Z,57.33
2023-03-03T22:24:07.169Z,56.60
2023-03-03T22:26:37.361Z,51.93
2023-03-03T22:29:05.199Z,50.57
2023-03-03T22:31:32.544Z,56.20
2023-03-03T22:33:59.857Z,56.87
2023-03-03T22:36:27.218Z,51.53
2023-03-03T22:38:54.491Z,57.53
2023-03-03T22:41:22.494Z,51.17
2023-03-03T22:43:49.778Z,57.40
2023-03-03T22:46:17.218Z,51.53
2023-03-03T22:48:44.461Z,54.50
2023-03-03T22:51:11.719Z,56.53
2023-03-03T22:53:38.998Z,57.97
2023-03-03T22:56:06.330Z,56.67
2023-03-03T22:58:33.525Z,54.93
2023-03-03T23:01:01.356Z,53.53
2023-03-03T23:03:28.558Z,56.97
2023-03-03T23:05:55.871Z,56.53
2023-03-03T23:08:23.286Z,56.27
2023-03-03T23:10:50.602Z,54.53
2023-03-03T23:13:18.044Z,57.17
2023-03-03T23:15:45.595Z,65.00
2023-03-03T23:18:12.742Z,65.93
2023-03-03T23:20:42.297Z,64.00
2023-03-03T23:23:09.515Z,61.73
2023-03-03T23:25:36.751Z,64.03
2023-03-03T23:28:04.176Z,59.43
2023-03-03T23:30:31.633Z,58.93
2023-03-03T23:32:59.054Z,63.73
2023-03-03T23:35:26.304Z,65.73
2023-03-03T23:37:53.546Z,60.57
2023-03-03T23:40:20.793Z,57.47
2023-03-03T23:42:48.124Z,62.90
2023-03-03T23:45:15.555Z,59.30
2023-03-03T23:47:42.676Z,59.27
2023-03-03T23:50:11.362Z,60.07
2023-03-03T23:52:38.493Z,65.73
2023-03-03T23:55:06.346Z,57.97
2023-03-03T23:57:33.590Z,63.27
